Terminal Aerodrome Forecast
Issued by NWS

Home | Current Version | Previous Version | Text Only | Print | Product List | Glossary On
Versions: 1 2 3 4 5 6 7 8 9 10 11 12 13
852
FTUS45 KRIW 231729
TAFCOD
TAF
KCOD 231729Z 2318/2418 22009KT P6SM -SHRA VCTS SCT030CB OVC080
     FM240200 23006KT P6SM VCSH SCT025 OVC080
     FM241200 22006KT P6SM SCT080
      AMD LTD TO CLD VIS AND WIND=

USA.gov is the U.S. government's official web portal to all federal, state and local government web resources and services.